createdAt,value
2019-04-10T00:00:21.023Z,18.43
2019-04-10T00:02:50.039Z,18.20
2019-04-10T00:05:18.112Z,18.80
2019-04-10T00:07:46.104Z,18.00
2019-04-10T00:10:13.951Z,19.20
2019-04-10T00:12:42.297Z,17.00
2019-04-10T00:15:10.405Z,17.73
2019-04-10T00:17:38.259Z,18.00
2019-04-10T00:20:07.866Z,18.20
2019-04-10T00:22:35.973Z,16.97
2019-04-10T00:25:04.328Z,18.40
2019-04-10T00:27:32.140Z,18.23
2019-04-10T00:30:00.632Z,18.10
2019-04-10T00:32:28.631Z,17.83
2019-04-10T00:34:56.573Z,19.87
2019-04-10T00:37:28.483Z,19.03
2019-04-10T00:39:55.062Z,17.20
2019-04-10T00:42:23.148Z,19.40
2019-04-10T00:44:52.191Z,18.17
2019-04-10T00:47:21.142Z,17.60
2019-04-10T00:49:50.279Z,18.27
2019-04-10T00:52:18.428Z,18.33
2019-04-10T00:54:46.875Z,18.03
2019-04-10T00:57:15.029Z,17.47
2019-04-10T00:59:44.006Z,18.37
2019-04-10T01:02:12.232Z,17.50
2019-04-10T01:04:40.239Z,17.70
2019-04-10T01:07:08.640Z,17.50
2019-04-10T01:09:37.518Z,18.00
2019-04-10T01:12:05.786Z,19.97
2019-04-10T01:14:33.960Z,19.10
2019-04-10T01:17:02.235Z,17.60
2019-04-10T01:19:30.123Z,17.93
2019-04-10T01:21:58.903Z,17.47
2019-04-10T01:24:27.900Z,17.00
2019-04-10T01:26:55.980Z,19.40
2019-04-10T01:29:25.076Z,18.23
2019-04-10T01:31:53.182Z,19.10
2019-04-10T01:34:21.236Z,18.23
2019-04-10T01:36:49.175Z,19.80
2019-04-10T01:39:22.252Z,18.93
2019-04-10T01:41:50.386Z,17.83
2019-04-10T01:44:18.203Z,20.07
2019-04-10T01:46:46.550Z,17.90
2019-04-10T01:49:15.643Z,17.37
2019-04-10T01:51:43.780Z,18.47
2019-04-10T01:54:11.738Z,19.23
2019-04-10T01:56:39.785Z,19.67
2019-04-10T01:59:07.788Z,18.60
2019-04-10T02:01:40.848Z,18.83
2019-04-10T02:04:08.963Z,18.57
2019-04-10T02:06:38.260Z,19.53
2019-04-10T02:09:08.765Z,19.07
2019-04-10T02:11:37.652Z,18.27
2019-04-10T02:14:05.704Z,20.70
2019-04-10T02:16:34.734Z,18.13
2019-04-10T02:19:02.885Z,19.10
2019-04-10T02:21:31.743Z,17.60
2019-04-10T02:24:00.898Z,19.73
2019-04-10T02:26:29.695Z,19.00
2019-04-10T02:28:57.954Z,19.80
2019-04-10T02:31:28.005Z,20.20
2019-04-10T02:33:58.075Z,18.50
2019-04-10T02:36:27.786Z,19.40
2019-04-10T02:39:08.540Z,19.70
2019-04-10T02:41:25.689Z,19.73
2019-04-10T02:43:53.783Z,19.57
2019-04-10T02:46:22.126Z,19.43
2019-04-10T02:48:50.534Z,19.03
2019-04-10T02:51:20.152Z,20.43
2019-04-10T02:53:50.175Z,18.97
2019-04-10T02:56:20.873Z,19.47
2019-04-10T02:58:49.422Z,21.47
2019-04-10T03:01:19.897Z,20.03
2019-04-10T03:03:47.812Z,19.57
2019-04-10T03:06:15.721Z,20.10
2019-04-10T03:08:59.060Z,17.93
2019-04-10T03:11:14.535Z,18.20
2019-04-10T03:13:45.008Z,18.67
2019-04-10T03:16:13.998Z,20.77
2019-04-10T03:18:43.099Z,19.07
2019-04-10T03:21:12.166Z,19.03
2019-04-10T03:23:41.776Z,19.60
2019-04-10T03:26:09.793Z,20.00
2019-04-10T03:28:38.843Z,20.73
2019-04-10T03:31:07.984Z,18.03
2019-04-10T03:33:49.385Z,17.53
2019-04-10T03:36:16.047Z,17.70
2019-04-10T03:38:55.505Z,17.87
2019-04-10T03:41:13.803Z,15.63
2019-04-10T03:43:41.745Z,16.43
2019-04-10T03:46:10.903Z,14.67
2019-04-10T03:48:39.003Z,15.80
2019-04-10T03:51:08.091Z,16.20
2019-04-10T03:53:36.174Z,16.00
2019-04-10T03:56:04.053Z,15.33
2019-04-10T03:58:31.976Z,13.77
2019-04-10T04:01:00.737Z,16.40
2019-04-10T04:03:28.760Z,14.80
2019-04-10T04:05:57.242Z,15.40
2019-04-10T04:08:25.678Z,14.43
2019-04-10T04:10:53.782Z,14.80
2019-04-10T04:13:21.754Z,13.50
2019-04-10T04:15:50.559Z,14.40
2019-04-10T04:18:19.270Z,14.80
2019-04-10T04:20:47.558Z,15.57
2019-04-10T04:23:15.703Z,12.70
2019-04-10T04:25:43.670Z,10.70
2019-04-10T04:28:11.509Z,11.93
2019-04-10T04:30:40.416Z,13.10
2019-04-10T04:33:08.877Z,13.30
2019-04-10T04:35:36.886Z,11.30
2019-04-10T04:38:04.713Z,10.73
2019-04-10T04:40:33.632Z,10.37
2019-04-10T04:43:01.466Z,10.83
2019-04-10T04:45:29.999Z,9.83
2019-04-10T04:47:58.094Z,9.40
2019-04-10T04:50:26.991Z,10.27
2019-04-10T04:52:54.935Z,12.63
2019-04-10T04:55:23.001Z,11.27
2019-04-10T04:57:51.114Z,12.93
2019-04-10T05:00:18.932Z,9.30
2019-04-10T05:02:47.009Z,10.30
2019-04-10T05:05:15.128Z,12.40
2019-04-10T05:07:54.132Z,11.30
2019-04-10T05:10:13.239Z,10.67
2019-04-10T05:12:43.232Z,9.47
2019-04-10T05:15:11.650Z,10.63
2019-04-10T05:17:39.712Z,10.67
2019-04-10T05:20:07.789Z,9.30
2019-04-10T05:22:35.945Z,10.03
2019-04-10T05:25:04.808Z,8.57
2019-04-10T05:27:33.141Z,9.20
2019-04-10T05:30:02.087Z,12.33
2019-04-10T05:32:30.741Z,11.80
2019-04-10T05:34:58.903Z,11.43
2019-04-10T05:37:27.521Z,10.43
2019-04-10T05:40:01.538Z,7.70
2019-04-10T05:42:29.640Z,7.57
2019-04-10T05:44:58.684Z,8.40
2019-04-10T05:47:26.596Z,11.63
2019-04-10T05:49:55.536Z,7.40
2019-04-10T05:52:23.621Z,7.40
2019-04-10T05:54:51.674Z,10.60
2019-04-10T05:57:20.176Z,8.97
2019-04-10T05:59:48.190Z,9.53
2019-04-10T06:02:16.240Z,9.73
2019-04-10T06:04:47.837Z,8.87
2019-04-10T06:07:15.686Z,8.23
2019-04-10T06:09:54.001Z,7.47
2019-04-10T06:12:16.066Z,8.17
2019-04-10T06:14:44.235Z,9.63
2019-04-10T06:17:12.572Z,12.70
2019-04-10T06:19:40.629Z,10.40
2019-04-10T06:22:09.795Z,8.20
2019-04-10T06:24:38.570Z,8.43
2019-04-10T06:27:06.350Z,10.23
2019-04-10T06:29:35.138Z,6.73
2019-04-10T06:32:03.328Z,6.60
2019-04-10T06:34:32.259Z,7.17
2019-04-10T06:37:00.235Z,7.40
2019-04-10T06:39:28.897Z,7.27
2019-04-10T06:41:58.193Z,7.33
2019-04-10T06:44:26.165Z,9.30
2019-04-10T06:46:54.988Z,6.40
2019-04-10T06:49:23.079Z,7.07
2019-04-10T06:51:53.457Z,6.83
2019-04-10T06:54:21.394Z,8.73
2019-04-10T06:56:50.279Z,6.63
2019-04-10T06:59:18.498Z,7.90
2019-04-10T07:01:51.331Z,7.63
2019-04-10T07:04:21.025Z,8.30
2019-04-10T07:06:57.492Z,7.83
2019-04-10T07:09:21.387Z,7.60
2019-04-10T07:11:55.559Z,7.00
2019-04-10T07:14:20.462Z,6.43
2019-04-10T07:16:53.140Z,7.20
2019-04-10T07:19:21.379Z,6.23
2019-04-10T07:21:51.597Z,6.80
2019-04-10T07:24:19.404Z,7.17
2019-04-10T07:26:49.356Z,8.27
2019-04-10T07:29:21.027Z,9.10
2019-04-10T07:31:47.169Z,7.80
2019-04-10T07:34:15.137Z,7.07
2019-04-10T07:36:43.913Z,8.03
2019-04-10T07:39:13.174Z,8.90
2019-04-10T07:41:41.815Z,5.90
2019-04-10T07:44:10.037Z,6.97
2019-04-10T07:46:38.258Z,8.93
2019-04-10T07:49:06.429Z,7.00
2019-04-10T07:51:34.555Z,6.70
2019-04-10T07:54:02.393Z,6.67
2019-04-10T07:56:31.169Z,6.53
2019-04-10T07:59:00.453Z,6.33
2019-04-10T08:01:28.496Z,10.43
2019-04-10T08:03:57.576Z,6.43
2019-04-10T08:06:25.663Z,7.63
2019-04-10T08:08:53.761Z,6.50
2019-04-10T08:11:21.918Z,6.13
2019-04-10T08:13:51.144Z,6.03
2019-04-10T08:16:19.136Z,7.07
2019-04-10T08:18:47.787Z,5.70
2019-04-10T08:21:16.068Z,7.90
2019-04-10T08:23:51.429Z,6.60
2019-04-10T08:26:21.282Z,6.00
2019-04-10T08:28:49.692Z,12.80
2019-04-10T08:31:18.987Z,7.83
2019-04-10T08:33:47.417Z,6.70
2019-04-10T08:36:15.309Z,7.03
2019-04-10T08:38:43.219Z,7.50
2019-04-10T08:41:11.329Z,7.13
2019-04-10T08:43:39.666Z,6.30
2019-04-10T08:46:08.637Z,6.80
2019-04-10T08:48:36.785Z,6.30
2019-04-10T08:51:04.783Z,8.13
2019-04-10T08:53:32.602Z,6.90
2019-04-10T08:56:07.313Z,7.07
2019-04-10T08:58:35.924Z,8.50
2019-04-10T09:01:07.201Z,7.50
2019-04-10T09:03:35.209Z,7.70
2019-04-10T09:06:03.136Z,7.83
2019-04-10T09:08:31.145Z,7.80
2019-04-10T09:10:59.157Z,8.20
2019-04-10T09:13:27.162Z,7.43
2019-04-10T09:15:56.165Z,8.07
2019-04-10T09:18:25.169Z,8.10
2019-04-10T09:20:53.328Z,7.53
2019-04-10T09:23:30.734Z,7.43
2019-04-10T09:25:51.284Z,8.47
2019-04-10T09:28:19.245Z,7.40
2019-04-10T09:30:47.274Z,8.80
2019-04-10T09:33:21.396Z,8.17
2019-04-10T09:35:45.337Z,10.33
2019-04-10T09:38:13.345Z,8.60
2019-04-10T09:40:41.174Z,7.70
2019-04-10T09:43:09.354Z,8.67
2019-04-10T09:45:37.473Z,7.40
2019-04-10T09:48:06.359Z,7.20
2019-04-10T09:50:35.410Z,8.10
2019-04-10T09:53:04.137Z,10.30
2019-04-10T09:55:32.155Z,7.40
2019-04-10T09:58:00.225Z,8.37
2019-04-10T10:00:29.926Z,8.03
2019-04-10T10:02:57.821Z,7.00
2019-04-10T10:05:26.562Z,8.17
2019-04-10T10:07:56.213Z,7.87
2019-04-10T10:10:24.692Z,7.83
2019-04-10T10:12:52.725Z,8.00
2019-04-10T10:15:21.092Z,8.43
2019-04-10T10:17:49.212Z,8.30
2019-04-10T10:20:17.958Z,8.70
2019-04-10T10:22:45.789Z,8.43
2019-04-10T10:25:13.877Z,8.43
2019-04-10T10:27:42.690Z,9.23
2019-04-10T10:30:11.659Z,8.83
2019-04-10T10:32:39.818Z,8.43
2019-04-10T10:35:07.649Z,8.33
2019-04-10T10:37:36.613Z,8.00
2019-04-10T10:40:08.348Z,9.17
2019-04-10T10:42:38.551Z,8.70
2019-04-10T10:45:08.679Z,7.80
2019-04-10T10:47:36.523Z,8.40
2019-04-10T10:50:06.649Z,8.70
2019-04-10T10:52:35.454Z,8.80
2019-04-10T10:55:05.359Z,8.93
2019-04-10T10:57:33.382Z,8.80
2019-04-10T11:00:02.134Z,14.53
2019-04-10T11:02:30.245Z,8.90
2019-04-10T11:05:00.951Z,18.00
2019-04-10T11:07:28.797Z,9.37
2019-04-10T11:09:56.986Z,9.77
2019-04-10T11:12:26.275Z,8.77
2019-04-10T11:14:54.416Z,9.47
2019-04-10T11:17:22.332Z,9.20
2019-04-10T11:19:51.374Z,8.80
2019-04-10T11:22:22.694Z,8.90
2019-04-10T11:24:49.415Z,8.80
2019-04-10T11:27:17.997Z,9.20
2019-04-10T11:29:46.758Z,10.57
2019-04-10T11:32:14.948Z,9.80
2019-04-10T11:34:42.919Z,9.03
2019-04-10T11:37:23.471Z,9.43
2019-04-10T11:39:43.531Z,8.27
2019-04-10T11:42:10.540Z,8.97
2019-04-10T11:44:39.672Z,9.33
2019-04-10T11:47:10.036Z,9.80
2019-04-10T11:49:42.772Z,9.00
2019-04-10T11:52:10.359Z,9.23
2019-04-10T11:54:41.279Z,8.83
2019-04-10T11:57:07.617Z,8.93
2019-04-10T11:59:37.972Z,9.70
2019-04-10T12:02:06.685Z,10.13
2019-04-10T12:04:45.300Z,9.60
2019-04-10T12:07:06.006Z,8.23
2019-04-10T12:12:04.126Z,8.63
2019-04-10T12:14:31.974Z,9.10
2019-04-10T12:17:01.245Z,9.60
2019-04-10T12:19:29.364Z,8.00
2019-04-10T12:21:58.019Z,8.00
2019-04-10T12:24:26.078Z,8.00
2019-04-10T12:26:54.221Z,8.67
2019-04-10T12:29:22.548Z,9.30
2019-04-10T12:31:50.873Z,7.27
2019-04-10T12:34:20.164Z,8.10
2019-04-10T12:36:48.947Z,8.67
2019-04-10T12:39:18.306Z,8.53
2019-04-10T12:41:46.307Z,7.90
2019-04-10T12:44:14.137Z,7.53
2019-04-10T12:46:42.202Z,7.90
2019-04-10T12:49:10.037Z,7.20
2019-04-10T12:51:38.245Z,7.97
2019-04-10T12:54:06.350Z,6.93
2019-04-10T12:56:34.616Z,8.57
2019-04-10T12:59:03.417Z,7.53
2019-04-10T13:01:31.498Z,7.27
2019-04-10T13:03:59.844Z,7.40
2019-04-10T13:06:28.133Z,6.90
2019-04-10T13:09:05.761Z,6.30
2019-04-10T13:11:26.869Z,6.43
2019-04-10T13:13:55.037Z,9.47
2019-04-10T13:16:23.833Z,9.07
2019-04-10T13:18:52.350Z,6.87
2019-04-10T13:21:22.238Z,7.77
2019-04-10T13:23:50.067Z,8.70
2019-04-10T13:26:18.076Z,6.50
2019-04-10T13:28:46.027Z,7.13
2019-04-10T13:31:14.110Z,6.47
2019-04-10T13:33:42.306Z,7.00
2019-04-10T13:36:11.291Z,6.53
2019-04-10T13:38:39.460Z,6.20
2019-04-10T13:41:08.150Z,6.87
2019-04-10T13:43:36.053Z,6.77
2019-04-10T13:46:04.884Z,6.10
2019-04-10T13:48:33.448Z,6.13
2019-04-10T13:51:01.468Z,5.87
2019-04-10T13:53:30.200Z,6.50
2019-04-10T13:55:59.004Z,5.90
2019-04-10T13:58:28.838Z,6.60
2019-04-10T14:00:57.079Z,6.67
2019-04-10T14:03:25.936Z,6.33
2019-04-10T14:05:54.858Z,6.37
2019-04-10T14:08:36.075Z,6.13
2019-04-10T14:10:53.025Z,7.00
2019-04-10T14:13:21.975Z,6.17
2019-04-10T14:15:50.483Z,6.90
2019-04-10T14:18:18.654Z,8.03
2019-04-10T14:20:47.843Z,7.10
2019-04-10T14:23:20.018Z,7.00
2019-04-10T14:26:10.658Z,7.13
2019-04-10T14:28:38.774Z,7.00
2019-04-10T14:31:14.087Z,5.90
2019-04-10T14:33:42.162Z,7.30
2019-04-10T14:36:11.748Z,5.83
2019-04-10T14:38:39.845Z,6.07
2019-04-10T14:41:07.785Z,6.07
2019-04-10T14:43:35.656Z,7.23
2019-04-10T14:46:06.133Z,8.70
2019-04-10T14:48:34.182Z,7.20
2019-04-10T14:51:02.133Z,7.33
2019-04-10T14:53:31.059Z,7.03
2019-04-10T14:55:59.873Z,6.90
2019-04-10T14:58:30.849Z,6.50
2019-04-10T15:00:57.773Z,6.40
2019-04-10T15:03:26.528Z,6.40
2019-04-10T15:05:56.969Z,7.00
2019-04-10T15:08:25.855Z,7.33
2019-04-10T15:10:53.987Z,6.70
2019-04-10T15:13:24.442Z,7.10
2019-04-10T15:15:53.607Z,6.87
2019-04-10T15:18:22.507Z,6.90
2019-04-10T15:20:50.483Z,6.67
2019-04-10T15:23:18.436Z,6.87
2019-04-10T15:25:47.096Z,6.40
2019-04-10T15:28:16.092Z,6.73
2019-04-10T15:30:44.557Z,7.73
2019-04-10T15:33:12.571Z,7.37
2019-04-10T15:35:40.398Z,7.70
2019-04-10T15:38:09.567Z,5.97
2019-04-10T15:40:38.577Z,6.53
2019-04-10T15:43:06.828Z,8.27
2019-04-10T15:45:35.771Z,6.80
2019-04-10T15:48:04.794Z,6.47
2019-04-10T15:50:34.663Z,5.87
2019-04-10T15:53:02.696Z,6.97
2019-04-10T15:55:30.635Z,6.17
2019-04-10T15:58:01.244Z,5.73
2019-04-10T16:00:29.461Z,6.27
2019-04-10T16:02:57.476Z,7.03
2019-04-10T16:05:25.766Z,6.30
2019-04-10T16:07:55.192Z,5.90
2019-04-10T16:10:58.448Z,5.10
2019-04-10T16:13:52.672Z,5.87
2019-04-10T16:16:49.236Z,6.87
2019-04-10T16:19:38.844Z,7.90
2019-04-10T16:22:29.628Z,6.53
2019-04-10T16:25:01.059Z,5.00
2019-04-10T16:27:29.092Z,5.20
2019-04-10T16:30:01.536Z,6.80
2019-04-10T16:32:29.195Z,5.33
2019-04-10T16:34:57.255Z,5.43
2019-04-10T16:37:26.266Z,4.50
2019-04-10T16:40:00.341Z,4.60
2019-04-10T16:42:24.482Z,3.93
2019-04-10T16:44:53.349Z,4.73
2019-04-10T16:47:22.632Z,5.10
2019-04-10T16:49:50.977Z,5.20
2019-04-10T16:52:20.930Z,6.03
2019-04-10T16:54:49.313Z,5.37
2019-04-10T16:57:18.503Z,6.70
2019-04-10T16:59:46.775Z,4.63
2019-04-10T17:02:15.607Z,4.93
2019-04-10T17:04:43.887Z,3.83
2019-04-10T17:07:11.767Z,4.83
2019-04-10T17:09:40.778Z,7.53
2019-04-10T17:12:09.453Z,6.67
2019-04-10T17:14:37.872Z,4.60
2019-04-10T17:17:06.234Z,5.70
2019-04-10T17:19:46.561Z,6.70
2019-04-10T17:22:04.778Z,6.00
2019-04-10T17:24:33.494Z,7.17
2019-04-10T17:27:01.614Z,5.30
2019-04-10T17:29:29.647Z,4.60
2019-04-10T17:31:57.707Z,4.33
2019-04-10T17:34:25.570Z,4.30
2019-04-10T17:36:53.788Z,3.00
2019-04-10T17:39:22.892Z,4.10
2019-04-10T17:41:52.151Z,4.80
2019-04-10T17:44:21.301Z,6.37
2019-04-10T17:46:49.314Z,5.50
2019-04-10T17:49:17.160Z,3.80
2019-04-10T17:51:45.953Z,6.10
2019-04-10T17:54:14.199Z,3.50
2019-04-10T17:56:42.249Z,3.13
2019-04-10T17:59:10.227Z,5.83
2019-04-10T18:01:41.097Z,3.37
2019-04-10T18:04:09.556Z,3.60
2019-04-10T18:06:37.528Z,5.20
2019-04-10T18:09:08.302Z,3.90
2019-04-10T18:11:37.320Z,2.97
2019-04-10T18:14:05.327Z,6.20
2019-04-10T18:16:33.880Z,4.20
2019-04-10T18:19:02.260Z,3.33
2019-04-10T18:21:30.862Z,3.30
2019-04-10T18:23:59.980Z,6.57
2019-04-10T18:26:27.993Z,6.20
2019-04-10T18:28:56.150Z,3.80
2019-04-10T18:31:26.493Z,4.70
2019-04-10T18:33:55.108Z,3.57
2019-04-10T18:36:24.257Z,3.47
2019-04-10T18:38:52.696Z,7.87
2019-04-10T18:41:20.751Z,7.20
2019-04-10T18:43:49.486Z,4.10
2019-04-10T18:46:20.802Z,4.23
2019-04-10T18:48:49.573Z,4.40
2019-04-10T18:51:21.426Z,4.33
2019-04-10T18:53:49.729Z,4.33
2019-04-10T18:56:18.623Z,3.77
2019-04-10T18:59:00.507Z,4.73
2019-04-10T19:01:43.258Z,6.23
2019-04-10T19:04:16.280Z,5.23
2019-04-10T19:06:58.617Z,4.57
2019-04-10T19:09:33.140Z,5.20
2019-04-10T19:12:02.455Z,4.80
2019-04-10T19:14:30.716Z,4.33
2019-04-10T19:17:02.580Z,4.73
2019-04-10T19:19:30.711Z,5.53
2019-04-10T19:21:59.953Z,3.47
2019-04-10T19:24:30.222Z,6.03
2019-04-10T19:26:58.424Z,4.07
2019-04-10T19:29:27.602Z,4.40
2019-04-10T19:31:58.468Z,4.13
2019-04-10T19:34:27.589Z,3.80
2019-04-10T19:36:58.387Z,3.43
2019-04-10T19:39:27.728Z,3.00
2019-04-10T19:41:55.789Z,4.90
2019-04-10T19:44:23.814Z,3.30
2019-04-10T19:46:52.020Z,6.00
2019-04-10T19:49:20.346Z,4.00
2019-04-10T19:51:48.751Z,2.97
2019-04-10T19:54:17.812Z,6.67
2019-04-10T19:56:45.917Z,3.70
2019-04-10T19:59:14.536Z,5.67
2019-04-10T20:01:43.001Z,5.53
2019-04-10T20:04:12.342Z,4.73
2019-04-10T20:06:40.836Z,6.10
2019-04-10T20:09:10.380Z,6.60
2019-04-10T20:11:43.406Z,5.20
2019-04-10T20:14:10.526Z,5.40
2019-04-10T20:16:41.562Z,4.70
2019-04-10T20:19:10.281Z,5.63
2019-04-10T20:21:38.268Z,4.20
2019-04-10T20:24:06.320Z,3.40
2019-04-10T20:26:34.919Z,4.93
2019-04-10T20:29:02.841Z,5.50
2019-04-10T20:31:33.188Z,5.10
2019-04-10T20:34:01.500Z,6.63
2019-04-10T20:36:29.595Z,5.13
2019-04-10T20:38:57.484Z,4.50
2019-04-10T20:41:26.464Z,4.20
2019-04-10T20:43:55.382Z,6.17
2019-04-10T20:46:24.308Z,5.17
2019-04-10T20:48:55.049Z,5.50
2019-04-10T20:51:23.167Z,6.20
2019-04-10T20:53:51.035Z,5.60
2019-04-10T20:56:19.907Z,7.47
2019-04-10T20:58:49.232Z,4.13
2019-04-10T21:01:17.169Z,6.77
2019-04-10T21:03:46.386Z,4.90
2019-04-10T21:06:15.514Z,4.53
2019-04-10T21:08:44.608Z,6.90
2019-04-10T21:11:13.858Z,5.80
2019-04-10T21:13:43.067Z,4.30
2019-04-10T21:16:11.335Z,5.10
2019-04-10T21:18:39.772Z,6.70
2019-04-10T21:21:08.155Z,5.70
2019-04-10T21:23:36.103Z,4.83
2019-04-10T21:26:04.091Z,4.63
2019-04-10T21:28:32.048Z,6.60
2019-04-10T21:31:10.050Z,5.73
2019-04-10T21:33:56.842Z,4.97
2019-04-10T21:36:26.185Z,5.57
2019-04-10T21:38:54.689Z,6.40
2019-04-10T21:41:22.824Z,5.93
2019-04-10T21:43:51.994Z,6.30
2019-04-10T21:46:20.301Z,5.10
2019-04-10T21:48:48.890Z,5.80
2019-04-10T21:51:17.105Z,6.40
2019-04-10T21:53:45.178Z,7.37
2019-04-10T21:56:13.324Z,6.40
2019-04-10T21:58:42.962Z,8.70
2019-04-10T22:01:13.390Z,6.60
2019-04-10T22:03:41.559Z,6.40
2019-04-10T22:06:15.784Z,7.03
2019-04-10T22:09:22.838Z,7.00
2019-04-10T22:11:53.142Z,5.97
2019-04-10T22:14:21.491Z,6.00
2019-04-10T22:16:50.533Z,5.73
2019-04-10T22:19:19.914Z,7.07
2019-04-10T22:21:48.495Z,6.87
2019-04-10T22:24:16.322Z,6.80
2019-04-10T22:26:44.576Z,6.07
2019-04-10T22:29:12.495Z,7.67
2019-04-10T22:31:41.571Z,6.57
2019-04-10T22:34:10.393Z,6.57
2019-04-10T22:36:39.537Z,11.37
2019-04-10T22:39:12.429Z,6.00
2019-04-10T22:41:40.677Z,6.73
2019-04-10T22:44:09.640Z,6.10
2019-04-10T22:46:38.397Z,6.37
2019-04-10T22:49:06.486Z,9.50
2019-04-10T22:51:35.580Z,9.87
2019-04-10T22:54:04.058Z,7.60
2019-04-10T22:56:32.241Z,6.50
2019-04-10T22:59:00.076Z,6.70
2019-04-10T23:01:29.119Z,9.57
2019-04-10T23:03:57.477Z,7.33
2019-04-10T23:06:25.563Z,7.70
2019-04-10T23:08:53.797Z,8.50
2019-04-10T23:11:33.415Z,7.70
2019-04-10T23:13:51.752Z,9.50
2019-04-10T23:16:19.960Z,9.43
2019-04-10T23:18:48.086Z,7.37
2019-04-10T23:21:16.568Z,9.23
2019-04-10T23:23:45.353Z,9.90
2019-04-10T23:26:15.858Z,9.10
2019-04-10T23:28:44.893Z,7.07
2019-04-10T23:31:13.192Z,6.70
2019-04-10T23:33:41.973Z,7.50
2019-04-10T23:36:10.054Z,7.80
2019-04-10T23:38:37.887Z,8.00
2019-04-10T23:41:07.763Z,7.00
2019-04-10T23:43:36.083Z,6.57
2019-04-10T23:46:04.241Z,6.43
2019-04-10T23:48:32.913Z,7.83
2019-04-10T23:51:01.007Z,6.70
2019-04-10T23:53:28.910Z,9.10
2019-04-10T23:55:56.915Z,9.10
2019-04-10T23:58:24.978Z,7.83
